createdAt,value
2022-12-08T00:01:32.852Z,99645.59
2022-12-08T00:04:02.448Z,99652.59
2022-12-08T00:06:59.034Z,99647.72
2022-12-08T00:09:26.902Z,99646.27
2022-12-08T00:12:00.427Z,99643.10
2022-12-08T00:14:34.203Z,99641.67
2022-12-08T00:17:03.621Z,99641.45
2022-12-08T00:19:32.197Z,99639.16
2022-12-08T00:22:00.549Z,99636.72
2022-12-08T00:24:35.089Z,99638.95
2022-12-08T00:27:02.954Z,99633.94
2022-12-08T00:29:31.007Z,99636.02
2022-12-08T00:31:58.799Z,99631.09
2022-12-08T00:34:26.554Z,99635.40
2022-12-08T00:36:54.791Z,99640.88
2022-12-08T00:39:22.995Z,99641.56
2022-12-08T00:42:09.226Z,99642.77
2022-12-08T00:44:37.671Z,99648.98
2022-12-08T00:47:05.489Z,99649.80
2022-12-08T00:49:33.361Z,99652.70
2022-12-08T00:52:01.710Z,99651.48
2022-12-08T00:54:29.593Z,99653.88
2022-12-08T00:56:57.284Z,99652.29
2022-12-08T00:59:25.676Z,99656.92
2022-12-08T01:04:56.477Z,99657.77
2022-12-08T01:07:59.193Z,99659.47
2022-12-08T01:16:03.394Z,99649.52
2022-12-08T01:18:36.492Z,99645.84
2022-12-08T01:21:08.416Z,99644.21
2022-12-08T01:23:37.357Z,99636.92
2022-12-08T01:26:09.580Z,99640.84
2022-12-08T01:28:39.355Z,99635.02
2022-12-08T01:31:13.822Z,99634.19
2022-12-08T01:33:43.689Z,99636.33
2022-12-08T01:36:22.263Z,99635.66
2022-12-08T01:38:52.579Z,99633.15
2022-12-08T01:41:23.525Z,99632.33
2022-12-08T01:43:51.236Z,99634.05
2022-12-08T01:46:19.547Z,99639.75
2022-12-08T01:48:47.437Z,99644.55
2022-12-08T01:51:15.434Z,99646.90
2022-12-08T01:53:43.622Z,99637.98
2022-12-08T01:56:19.274Z,99637.05
2022-12-08T01:58:50.786Z,99636.98
2022-12-08T02:01:18.621Z,99635.06
2022-12-08T02:03:58.448Z,99637.48
2022-12-08T02:06:29.675Z,99633.63
2022-12-08T02:08:59.612Z,99630.66
2022-12-08T02:11:27.465Z,99629.45
2022-12-08T02:13:56.234Z,99626.87
2022-12-08T02:16:52.496Z,99628.27
2022-12-08T02:19:45.006Z,99627.63
2022-12-08T02:22:40.550Z,99626.67
2022-12-08T02:25:21.031Z,99627.75
2022-12-08T02:28:32.707Z,99632.61
2022-12-08T02:31:31.639Z,99629.52
2022-12-08T02:34:13.817Z,99632.13
2022-12-08T02:37:19.113Z,99631.80
2022-12-08T02:40:03.107Z,99632.51
2022-12-08T02:42:47.283Z,99630.77
2022-12-08T02:45:22.926Z,99628.84
2022-12-08T02:47:52.356Z,99623.99
2022-12-08T02:50:20.693Z,99626.75
2022-12-08T02:52:48.533Z,99622.95
2022-12-08T02:55:39.692Z,99621.38
2022-12-08T02:58:35.562Z,99618.09
2022-12-08T03:01:09.250Z,99619.50
2022-12-08T03:04:08.743Z,99618.85
2022-12-08T03:07:06.813Z,99617.84
2022-12-08T03:09:47.228Z,99616.15
2022-12-08T03:12:43.526Z,99616.40
2022-12-08T03:15:15.467Z,99614.92
2022-12-08T03:17:47.293Z,99613.60
2022-12-08T03:20:21.567Z,99606.69
2022-12-08T03:22:53.460Z,99607.71
2022-12-08T03:25:23.309Z,99605.45
2022-12-08T03:27:52.375Z,99603.37
2022-12-08T03:30:20.275Z,99603.14
2022-12-08T03:32:52.045Z,99603.45
2022-12-08T03:35:24.722Z,99605.60
2022-12-08T03:37:52.519Z,99609.55
2022-12-08T03:40:21.010Z,99613.54
2022-12-08T03:42:48.967Z,99611.13
2022-12-08T03:45:16.863Z,99616.77
2022-12-08T03:47:44.560Z,99613.64
2022-12-08T03:50:12.377Z,99615.50
2022-12-08T03:52:40.277Z,99616.52
2022-12-08T03:55:08.231Z,99618.39
2022-12-08T03:57:36.278Z,99613.07
2022-12-08T04:00:09.177Z,99615.98
2022-12-08T04:02:37.090Z,99617.89
2022-12-08T04:05:05.185Z,99615.81
2022-12-08T04:07:33.365Z,99613.89
2022-12-08T04:10:01.601Z,99610.63
2022-12-08T04:12:29.670Z,99611.36
2022-12-08T04:14:57.399Z,99611.03
2022-12-08T04:17:25.198Z,99606.00
2022-12-08T04:19:52.895Z,99602.18
2022-12-08T04:22:20.704Z,99599.54
2022-12-08T04:24:48.702Z,99594.01
2022-12-08T04:27:16.456Z,99584.13
2022-12-08T04:29:44.357Z,99587.84
2022-12-08T04:32:12.240Z,99586.70
2022-12-08T04:34:39.954Z,99586.60
2022-12-08T04:37:09.871Z,99586.38
2022-12-08T04:39:40.422Z,99583.92
2022-12-08T04:42:08.490Z,99584.23
2022-12-08T04:44:36.263Z,99586.62
2022-12-08T04:47:04.152Z,99586.66
2022-12-08T04:49:32.151Z,99582.39
2022-12-08T04:52:00.006Z,99580.89
2022-12-08T04:54:28.310Z,99574.73
2022-12-08T04:56:55.968Z,99576.00
2022-12-08T04:59:23.901Z,99571.75
2022-12-08T05:01:51.934Z,99573.35
2022-12-08T05:04:19.796Z,99574.77
2022-12-08T05:06:47.645Z,99576.70
2022-12-08T05:09:15.446Z,99574.88
2022-12-08T05:11:48.650Z,99571.10
2022-12-08T05:14:18.751Z,99569.73
2022-12-08T05:16:47.067Z,99569.73
2022-12-08T05:19:15.560Z,99562.11
2022-12-08T05:21:43.775Z,99564.04
2022-12-08T05:24:11.512Z,99563.38
2022-12-08T05:26:39.270Z,99565.27
2022-12-08T05:29:07.166Z,99567.19
2022-12-08T05:31:35.080Z,99559.52
2022-12-08T05:34:03.623Z,99558.92
2022-12-08T05:36:31.793Z,99559.55
2022-12-08T05:38:59.669Z,99560.69
2022-12-08T05:41:27.349Z,99558.13
2022-12-08T05:43:55.717Z,99556.51
2022-12-08T05:46:28.264Z,99556.60
2022-12-08T05:48:56.297Z,99559.11
2022-12-08T05:51:24.425Z,99562.05
2022-12-08T05:53:53.000Z,99561.24
2022-12-08T05:56:21.538Z,99562.14
2022-12-08T05:58:49.803Z,99561.98
2022-12-08T06:01:27.557Z,99556.98
2022-12-08T06:03:57.302Z,99551.14
2022-12-08T06:06:25.599Z,99552.02
2022-12-08T06:08:54.320Z,99549.21
2022-12-08T06:11:27.309Z,99551.10
2022-12-08T06:13:56.889Z,99557.42
2022-12-08T06:16:26.377Z,99559.01
2022-12-08T06:18:56.161Z,99557.24
2022-12-08T06:21:25.107Z,99556.17
2022-12-08T06:23:54.141Z,99560.92
2022-12-08T06:26:22.720Z,99558.31
2022-12-08T06:28:52.209Z,99556.40
2022-12-08T06:31:22.533Z,99549.48
2022-12-08T06:33:50.943Z,99545.48
2022-12-08T06:36:20.801Z,99555.88
2022-12-08T06:38:49.179Z,99547.41
2022-12-08T06:41:17.748Z,99556.94
2022-12-08T06:43:45.608Z,99556.75
2022-12-08T06:46:16.549Z,99563.14
2022-12-08T06:48:44.716Z,99564.72
2022-12-08T06:51:18.367Z,99563.71
2022-12-08T06:53:47.302Z,99561.09
2022-12-08T06:56:16.047Z,99563.13
2022-12-08T06:58:48.962Z,99560.05
2022-12-08T07:01:25.578Z,99562.58
2022-12-08T07:03:53.693Z,99567.06
2022-12-08T07:06:25.013Z,99564.46
2022-12-08T07:08:53.178Z,99563.74
2022-12-08T07:11:22.416Z,99561.67
2022-12-08T07:13:51.211Z,99565.11
2022-12-08T07:16:19.343Z,99561.14
2022-12-08T07:18:47.431Z,99564.56
2022-12-08T07:21:18.184Z,99561.06
2022-12-08T07:23:50.201Z,99563.92
2022-12-08T07:26:22.217Z,99564.73
2022-12-08T07:28:50.050Z,99561.92
2022-12-08T07:31:24.346Z,99561.73
2022-12-08T07:33:53.107Z,99561.98
2022-12-08T07:36:21.716Z,99560.27
2022-12-08T07:38:50.453Z,99558.64
2022-12-08T07:41:23.537Z,99563.90
2022-12-08T07:43:53.692Z,99560.45
2022-12-08T07:46:26.303Z,99564.30
2022-12-08T07:48:57.217Z,99570.40
2022-12-08T07:51:25.316Z,99567.70
2022-12-08T07:53:54.503Z,99565.69
2022-12-08T07:56:23.559Z,99568.84
2022-12-08T07:58:51.563Z,99572.20
2022-12-08T08:01:28.029Z,99570.04
2022-12-08T08:03:58.366Z,99566.44
2022-12-08T08:06:26.131Z,99566.33
2022-12-08T08:08:54.678Z,99568.27
2022-12-08T08:11:25.075Z,99570.54
2022-12-08T08:13:57.835Z,99566.80
2022-12-08T08:16:25.954Z,99569.99
2022-12-08T08:18:55.268Z,99569.10
2022-12-08T08:24:14.363Z,99564.81
2022-12-08T08:26:42.188Z,99565.85
2022-12-08T08:29:10.070Z,99567.98
2022-12-08T08:31:38.196Z,99564.92
2022-12-08T08:34:06.608Z,99562.02
2022-12-08T08:36:35.641Z,99560.88
2022-12-08T08:39:04.644Z,99566.62
2022-12-08T08:41:32.690Z,99564.81
2022-12-08T08:44:00.521Z,99562.44
2022-12-08T08:46:28.533Z,99563.42
2022-12-08T08:48:56.430Z,99560.53
2022-12-08T08:51:24.583Z,99557.96
2022-12-08T08:53:52.550Z,99555.18
2022-12-08T08:56:20.633Z,99550.13
2022-12-08T08:58:50.195Z,99549.38
2022-12-08T09:01:27.452Z,99543.33
2022-12-08T09:03:56.668Z,99542.60
2022-12-08T09:06:25.003Z,99542.02
2022-12-08T09:08:53.021Z,99539.84
2022-12-08T09:11:20.860Z,99535.73
2022-12-08T09:13:49.917Z,99534.60
2022-12-08T09:16:18.970Z,99536.80
2022-12-08T09:18:50.571Z,99536.11
2022-12-08T09:21:23.032Z,99536.81
2022-12-08T09:23:56.027Z,99536.45
2022-12-08T09:26:25.333Z,99529.83
2022-12-08T09:28:55.847Z,99530.48
2022-12-08T09:31:27.648Z,99529.31
2022-12-08T09:33:55.720Z,99529.70
2022-12-08T09:36:23.651Z,99529.95
2022-12-08T09:38:53.755Z,99530.71
2022-12-08T09:41:40.324Z,99528.88
2022-12-08T09:44:47.423Z,99528.19
2022-12-08T09:47:42.663Z,99524.29
2022-12-08T09:50:36.874Z,99520.29
2022-12-08T09:53:35.846Z,99521.10
2022-12-08T09:56:12.769Z,99521.46
2022-12-08T09:58:52.794Z,99521.77
2022-12-08T10:01:32.231Z,99521.36
2022-12-08T10:04:01.628Z,99515.21
2022-12-08T10:06:42.099Z,99516.96
2022-12-08T10:09:32.340Z,99517.96
2022-12-08T10:12:21.294Z,99514.94
2022-12-08T10:15:07.051Z,99512.67
2022-12-08T10:17:40.982Z,99508.85
2022-12-08T10:20:20.995Z,99506.16
2022-12-08T10:23:04.450Z,99502.70
2022-12-08T10:25:39.372Z,99497.71
2022-12-08T10:28:08.827Z,99502.00
2022-12-08T10:30:36.883Z,99491.62
2022-12-08T10:33:04.803Z,99494.12
2022-12-08T10:35:58.480Z,99490.27
2022-12-08T10:38:31.323Z,99489.58
2022-12-08T10:41:13.638Z,99488.51
2022-12-08T10:43:49.104Z,99480.97
2022-12-08T10:46:28.553Z,99483.30
2022-12-08T10:49:25.091Z,99483.11
2022-12-08T10:51:55.562Z,99481.27
2022-12-08T10:54:33.510Z,99484.73
2022-12-08T10:57:01.604Z,99481.66
2022-12-08T10:59:29.648Z,99482.40
2022-12-08T11:01:58.813Z,99482.34
2022-12-08T11:04:40.900Z,99479.20
2022-12-08T11:07:11.142Z,99478.45
2022-12-08T11:09:48.840Z,99477.24
2022-12-08T11:12:22.202Z,99479.37
2022-12-08T11:14:56.494Z,99477.44
2022-12-08T11:17:27.047Z,99474.23
2022-12-08T11:19:58.121Z,99470.85
2022-12-08T11:22:47.812Z,99469.75
2022-12-08T11:25:22.724Z,99465.48
2022-12-08T11:27:54.266Z,99466.16
2022-12-08T11:30:29.371Z,99466.25
2022-12-08T11:33:23.695Z,99463.67
2022-12-08T11:36:04.889Z,99465.23
2022-12-08T11:38:35.630Z,99458.86
2022-12-08T11:41:22.202Z,99463.15
2022-12-08T11:44:03.527Z,99460.95
2022-12-08T11:46:47.882Z,99455.38
2022-12-08T11:49:18.311Z,99459.05
2022-12-08T11:52:22.410Z,99455.41
2022-12-08T11:54:59.527Z,99456.80
2022-12-08T11:57:29.744Z,99456.58
2022-12-08T11:59:58.792Z,99459.50
2022-12-08T12:02:48.493Z,99458.41
2022-12-08T12:06:23.930Z,99457.23
2022-12-08T12:09:35.226Z,99453.73
2022-12-08T12:12:51.479Z,99444.39
2022-12-08T12:19:22.099Z,99448.17
2022-12-08T12:21:55.551Z,99445.06
2022-12-08T12:24:54.466Z,99446.15
2022-12-08T12:27:41.515Z,99444.91
2022-12-08T12:30:27.918Z,99447.75
2022-12-08T12:33:12.146Z,99439.92
2022-12-08T12:36:11.539Z,99441.60
2022-12-08T12:39:02.233Z,99440.90
2022-12-08T12:41:47.022Z,99443.20
2022-12-08T12:44:14.989Z,99444.63
2022-12-08T12:47:13.089Z,99435.20
2022-12-08T12:53:28.049Z,99430.33
2022-12-08T12:56:50.565Z,99430.70
2022-12-08T13:00:28.222Z,99429.09
2022-12-08T13:03:01.970Z,99427.44
2022-12-08T13:05:47.906Z,99426.71
2022-12-08T13:08:25.024Z,99423.35
2022-12-08T13:18:45.693Z,99412.90
2022-12-08T13:21:53.959Z,99415.80
2022-12-08T13:25:47.054Z,99414.05
2022-12-08T13:28:35.021Z,99411.38
2022-12-08T13:31:48.555Z,99407.92
2022-12-08T13:38:16.499Z,99408.38
2022-12-08T14:20:04.604Z,99407.52
2022-12-08T14:23:26.088Z,99410.33
2022-12-08T14:26:38.134Z,99412.90
2022-12-08T14:29:17.865Z,99409.98
2022-12-08T14:47:52.983Z,99429.86
2022-12-08T14:51:09.600Z,99424.86
2022-12-08T14:54:09.999Z,99429.77
2022-12-08T15:11:51.804Z,99430.55
2022-12-08T15:15:14.328Z,99432.27
2022-12-08T15:21:05.533Z,99433.61
2022-12-08T15:24:14.839Z,99431.45
2022-12-08T16:07:22.997Z,99427.07
2022-12-08T16:09:51.585Z,99426.17
2022-12-08T16:15:59.077Z,99430.85
2022-12-08T16:18:28.052Z,99431.80
2022-12-08T16:23:46.150Z,99425.47
2022-12-08T16:26:44.697Z,99427.95
2022-12-08T16:29:13.024Z,99431.84
2022-12-08T16:31:40.909Z,99430.54
2022-12-08T16:34:08.666Z,99433.42
2022-12-08T16:36:36.945Z,99432.46
2022-12-08T16:39:04.678Z,99434.39
2022-12-08T16:41:51.078Z,99434.29
2022-12-08T16:44:18.928Z,99433.39
2022-12-08T16:46:46.695Z,99435.02
2022-12-08T16:49:15.577Z,99432.19
2022-12-08T16:51:44.028Z,99432.33
2022-12-08T16:54:12.036Z,99429.76
2022-12-08T16:56:39.724Z,99427.38
2022-12-08T16:59:07.877Z,99427.69
2022-12-08T17:01:36.416Z,99425.46
2022-12-08T17:06:53.113Z,99422.74
2022-12-08T17:09:20.916Z,99425.30
2022-12-08T17:11:48.771Z,99421.57
2022-12-08T17:14:17.116Z,99421.83
2022-12-08T17:16:45.646Z,99417.91
2022-12-08T17:19:15.353Z,99416.91
2022-12-08T17:21:44.693Z,99416.10
2022-12-08T17:24:15.828Z,99415.13
2022-12-08T17:26:46.809Z,99417.58
2022-12-08T17:29:14.537Z,99420.20
2022-12-08T17:31:42.355Z,99417.96
2022-12-08T17:34:11.197Z,99421.77
2022-12-08T17:36:38.976Z,99427.52
2022-12-08T17:39:11.018Z,99429.30
2022-12-08T17:41:43.059Z,99432.45
2022-12-08T17:44:16.094Z,99428.91
2022-12-08T17:46:49.128Z,99431.48
2022-12-08T17:49:23.579Z,99435.07
2022-12-08T17:51:54.832Z,99435.20
2022-12-08T17:54:22.881Z,99434.26
2022-12-08T17:56:52.023Z,99434.70
2022-12-08T17:59:20.233Z,99434.81
2022-12-08T18:01:48.255Z,99432.99
2022-12-08T18:04:16.171Z,99434.84
2022-12-08T18:06:44.008Z,99438.17
2022-12-08T18:09:11.928Z,99435.11
2022-12-08T18:11:40.522Z,99434.83
2022-12-08T18:14:11.763Z,99435.02
2022-12-08T18:16:42.600Z,99435.11
2022-12-08T18:19:13.079Z,99434.64
2022-12-08T18:21:42.184Z,99433.64
2022-12-08T18:24:17.184Z,99436.23
2022-12-08T18:26:45.366Z,99434.89
2022-12-08T18:29:13.224Z,99436.43
2022-12-08T18:31:40.877Z,99443.86
2022-12-08T18:34:08.849Z,99435.91
2022-12-08T18:36:36.646Z,99434.39
2022-12-08T18:39:10.543Z,99434.60
2022-12-08T18:41:38.940Z,99430.83
2022-12-08T18:44:06.780Z,99438.04
2022-12-08T18:46:34.521Z,99431.17
2022-12-08T18:49:02.357Z,99430.14
2022-12-08T18:51:30.642Z,99428.98
2022-12-08T18:53:58.469Z,99429.73
2022-12-08T18:56:30.364Z,99428.45
2022-12-08T18:59:03.585Z,99431.20
2022-12-08T19:01:33.839Z,99427.58
2022-12-08T19:06:52.877Z,99428.97
2022-12-08T19:09:20.852Z,99429.29
2022-12-08T19:11:48.976Z,99434.64
2022-12-08T19:14:19.204Z,99436.88
2022-12-08T19:16:50.993Z,99433.89
2022-12-08T19:19:19.089Z,99430.96
2022-12-08T19:21:46.920Z,99430.05
2022-12-08T19:24:14.804Z,99427.60
2022-12-08T19:26:43.024Z,99431.88
2022-12-08T19:29:11.874Z,99432.73
2022-12-08T19:31:40.642Z,99432.22
2022-12-08T19:34:10.887Z,99433.75
2022-12-08T19:36:42.580Z,99432.71
2022-12-08T19:39:35.129Z,99432.39
2022-12-08T19:42:22.146Z,99431.34
2022-12-08T19:44:52.777Z,99430.64
2022-12-08T19:47:22.129Z,99424.71
2022-12-08T19:49:50.570Z,99421.93
2022-12-08T19:52:18.948Z,99422.56
2022-12-08T19:54:47.174Z,99418.20
2022-12-08T19:57:16.048Z,99419.85
2022-12-08T19:59:43.865Z,99415.16
2022-12-08T20:02:11.689Z,99408.37
2022-12-08T20:04:39.549Z,99412.82
2022-12-08T20:07:07.538Z,99408.85
2022-12-08T20:09:35.377Z,99404.86
2022-12-08T20:12:03.504Z,99410.20
2022-12-08T20:14:31.430Z,99408.92
2022-12-08T20:16:59.236Z,99409.05
2022-12-08T20:19:27.187Z,99410.19
2022-12-08T20:21:57.567Z,99413.11
2022-12-08T20:24:25.365Z,99412.04
2022-12-08T20:26:53.177Z,99413.77
2022-12-08T20:29:21.257Z,99417.20
2022-12-08T20:31:49.017Z,99420.61
2022-12-08T20:34:18.967Z,99423.55
2022-12-08T20:36:47.196Z,99428.02
2022-12-08T20:39:18.046Z,99432.17
2022-12-08T20:41:46.534Z,99430.29
2022-12-08T20:44:14.989Z,99429.77
2022-12-08T20:46:47.720Z,99424.95
2022-12-08T20:49:17.611Z,99426.20
2022-12-08T20:51:46.143Z,99428.77
2022-12-08T20:54:14.154Z,99432.46
2022-12-08T20:56:47.913Z,99433.89
2022-12-08T20:59:18.314Z,99432.17
2022-12-08T21:01:46.734Z,99434.80
2022-12-08T21:04:15.976Z,99434.52
2022-12-08T21:06:43.778Z,99437.99
2022-12-08T21:09:11.993Z,99433.27
2022-12-08T21:11:40.134Z,99433.08
2022-12-08T21:14:07.980Z,99432.42
2022-12-08T21:16:36.566Z,99425.86
2022-12-08T21:19:04.652Z,99433.95
2022-12-08T21:21:32.605Z,99434.96
2022-12-08T21:24:01.435Z,99432.34
2022-12-08T21:26:29.431Z,99431.66
2022-12-08T21:28:58.927Z,99429.27
2022-12-08T21:31:29.319Z,99427.19
2022-12-08T21:33:58.513Z,99429.95
2022-12-08T21:36:26.339Z,99433.93
2022-12-08T21:38:55.296Z,99430.48
2022-12-08T21:41:42.581Z,99432.70
2022-12-08T21:44:15.242Z,99434.71
2022-12-08T21:46:43.171Z,99432.97
2022-12-08T21:49:11.390Z,99435.88
2022-12-08T21:51:42.272Z,99435.74
2022-12-08T21:54:18.627Z,99434.52
2022-12-08T21:56:49.393Z,99438.47
2022-12-08T21:59:18.163Z,99437.11
2022-12-08T22:01:46.138Z,99430.93
2022-12-08T22:04:18.210Z,99437.02
2022-12-08T22:06:46.340Z,99436.00
2022-12-08T22:09:15.318Z,99435.30
2022-12-08T22:11:44.072Z,99431.33
2022-12-08T22:14:14.826Z,99429.65
2022-12-08T22:16:44.076Z,99432.81
2022-12-08T22:19:12.670Z,99430.25
2022-12-08T22:21:40.880Z,99426.66
2022-12-08T22:24:09.037Z,99424.58
2022-12-08T22:26:37.118Z,99425.09
2022-12-08T22:29:05.216Z,99423.38
2022-12-08T22:31:33.115Z,99424.64
2022-12-08T22:34:01.562Z,99425.03
2022-12-08T22:36:29.941Z,99419.20
2022-12-08T22:38:57.712Z,99423.07
2022-12-08T22:41:25.648Z,99423.80
2022-12-08T22:43:53.476Z,99423.77
2022-12-08T22:46:24.009Z,99419.45
2022-12-08T22:48:54.166Z,99420.48
2022-12-08T22:51:22.055Z,99421.19
2022-12-08T22:53:50.458Z,99418.05
2022-12-08T22:56:20.709Z,99420.95
2022-12-08T22:58:48.775Z,99422.70
2022-12-08T23:01:27.410Z,99422.11
2022-12-08T23:03:55.786Z,99425.49
2022-12-08T23:06:27.257Z,99425.34
2022-12-08T23:08:55.764Z,99420.22
2022-12-08T23:11:27.885Z,99420.79
2022-12-08T23:13:57.570Z,99418.55
2022-12-08T23:16:26.751Z,99419.11
2022-12-08T23:18:55.013Z,99412.91
2022-12-08T23:21:23.114Z,99416.75
2022-12-08T23:23:51.132Z,99414.15
2022-12-08T23:26:26.913Z,99417.45
2022-12-08T23:29:51.060Z,99415.86
2022-12-08T23:32:37.898Z,99419.68
2022-12-08T23:35:07.144Z,99422.13
2022-12-08T23:37:35.323Z,99428.55
2022-12-08T23:40:04.770Z,99428.54
2022-12-08T23:42:33.541Z,99427.98
2022-12-08T23:45:01.872Z,99432.67
2022-12-08T23:47:30.283Z,99435.80
2022-12-08T23:49:58.614Z,99438.59
2022-12-08T23:52:26.780Z,99438.92
2022-12-08T23:54:54.817Z,99441.88
2022-12-08T23:57:23.018Z,99440.63
2022-12-08T23:59:50.923Z,99441.27
